Time;durP1;ratioP1;P1;durP2;ratioP2;P2;SDS_P1;SDS_P2;PMS_P1;PMS_P2;Temp;Humidity;BMP_temperature;BMP_pressure;BME280_temperature;BME280_humidity;BME280_pressure;Samples;Min_cycle;Max_cycle;Signal;HPM_P1;HPM_P2
2020/12/22 00:00:18;;;;;;;1.87;1.77;;;11.20;99.90;;;;;;5094284;28;20158;-61
2020/12/22 00:02:44;;;;;;;2.40;2.20;;;11.40;99.90;;;;;;5100583;28;20157;-60
2020/12/22 00:05:11;;;;;;;2.47;2.20;;;11.40;99.90;;;;;;5114522;28;20199;-61
2020/12/22 00:07:38;;;;;;;1.57;1.47;;;11.30;99.90;;;;;;5114924;28;20556;-61
2020/12/22 00:10:05;;;;;;;3.10;2.73;;;11.20;99.90;;;;;;5114044;28;20458;-62
2020/12/22 00:12:31;;;;;;;2.63;2.30;;;11.20;99.90;;;;;;5113707;28;20413;-61
2020/12/22 00:14:57;;;;;;;2.50;2.30;;;11.30;99.90;;;;;;5114164;28;20453;-61
2020/12/22 00:17:23;;;;;;;3.37;2.90;;;11.40;99.90;;;;;;5113595;28;20913;-62
2020/12/22 00:19:48;;;;;;;2.33;2.00;;;11.50;99.90;;;;;;5106236;28;20189;-61
2020/12/22 00:22:14;;;;;;;2.10;2.00;;;11.40;99.90;;;;;;5074202;28;20636;-61
2020/12/22 00:24:39;;;;;;;2.13;1.93;;;11.40;99.90;;;;;;5074157;28;20549;-62
2020/12/22 00:27:05;;;;;;;3.77;3.00;;;11.60;99.90;;;;;;5073736;28;20181;-60
2020/12/22 00:29:31;;;;;;;2.33;2.03;;;11.50;99.90;;;;;;5076528;28;20194;-63
2020/12/22 00:32:00;;;;;;;2.83;2.53;;;11.40;99.90;;;;;;5077126;28;20657;-63
2020/12/22 00:34:27;;;;;;;2.40;2.20;;;11.30;99.90;;;;;;5077836;28;20597;-64
2020/12/22 00:36:52;;;;;;;2.40;2.23;;;11.30;99.90;;;;;;5077542;28;20787;-62
2020/12/22 00:39:18;;;;;;;2.83;1.90;;;11.30;99.90;;;;;;5077382;28;20438;-62
2020/12/22 00:41:43;;;;;;;1.50;1.40;;;11.30;99.90;;;;;;5076724;28;20171;-63
2020/12/22 00:44:09;;;;;;;2.20;2.00;;;11.50;99.90;;;;;;5077298;28;20178;-63
2020/12/22 00:46:36;;;;;;;1.53;1.43;;;11.50;99.90;;;;;;5077243;28;20194;-63
2020/12/22 00:49:01;;;;;;;1.33;1.23;;;11.60;99.90;;;;;;5076800;28;20198;-64
2020/12/22 00:51:27;;;;;;;1.50;1.40;;;11.50;99.90;;;;;;5077523;28;20510;-64
2020/12/22 00:53:53;;;;;;;1.53;1.43;;;11.50;99.90;;;;;;5077664;28;20224;-62
2020/12/22 00:56:18;;;;;;;1.40;1.30;;;11.60;99.90;;;;;;5077174;28;20174;-62
2020/12/22 00:58:44;;;;;;;2.50;2.13;;;11.70;99.90;;;;;;5077346;28;20264;-62
2020/12/22 01:01:09;;;;;;;1.50;1.40;;;11.70;99.90;;;;;;5078363;28;20178;-62
2020/12/22 01:03:35;;;;;;;1.50;1.40;;;11.70;99.90;;;;;;5077479;28;20174;-62
2020/12/22 01:06:01;;;;;;;1.70;1.23;;;11.60;99.90;;;;;;5077820;28;20268;-62
2020/12/22 01:08:26;;;;;;;1.33;1.23;;;11.70;99.90;;;;;;5077657;28;20241;-62
2020/12/22 01:10:52;;;;;;;1.50;1.20;;;11.80;99.90;;;;;;5077965;28;20630;-61
2020/12/22 01:13:17;;;;;;;1.30;1.20;;;11.80;99.90;;;;;;5076292;28;20173;-62
2020/12/22 01:15:43;;;;;;;1.20;1.10;;;11.90;99.90;;;;;;5077691;28;20170;-62
2020/12/22 01:18:09;;;;;;;1.20;1.00;;;11.90;99.90;;;;;;5077467;28;20215;-61
2020/12/22 01:20:34;;;;;;;1.27;1.17;;;12.00;99.90;;;;;;5078935;28;20261;-62
2020/12/22 01:23:00;;;;;;;3.80;1.40;;;12.00;99.90;;;;;;5078455;28;20523;-62
2020/12/22 01:25:25;;;;;;;1.00;0.90;;;12.00;99.90;;;;;;5076356;28;20217;-62
2020/12/22 01:27:51;;;;;;;1.30;1.20;;;12.10;99.90;;;;;;5076018;28;20221;-62
2020/12/22 01:30:17;;;;;;;1.50;1.30;;;12.10;99.90;;;;;;5077014;28;20172;-62
2020/12/22 01:32:44;;;;;;;1.43;1.33;;;12.10;99.90;;;;;;5076845;28;20173;-62
2020/12/22 01:35:10;;;;;;;1.53;1.43;;;12.10;99.90;;;;;;5097040;28;20170;-61
2020/12/22 01:37:36;;;;;;;1.23;1.13;;;12.10;99.90;;;;;;5097257;28;20421;-62
2020/12/22 01:40:03;;;;;;;1.30;1.20;;;12.10;99.90;;;;;;5095446;28;20224;-62
2020/12/22 01:42:29;;;;;;;1.10;0.97;;;12.10;99.90;;;;;;5096024;28;20583;-62
2020/12/22 01:44:54;;;;;;;1.40;1.30;;;12.20;99.90;;;;;;5096112;28;20414;-60
2020/12/22 01:47:21;;;;;;;1.07;1.03;;;12.20;99.90;;;;;;5096583;28;20208;-62
2020/12/22 01:49:47;;;;;;;1.20;1.10;;;12.20;99.90;;;;;;5095951;28;20197;-62
2020/12/22 01:52:13;;;;;;;1.77;0.90;;;12.00;99.90;;;;;;5096612;28;20913;-61
2020/12/22 01:54:38;;;;;;;2.53;1.20;;;12.10;99.90;;;;;;5095944;28;20166;-62
2020/12/22 01:57:14;;;;;;;1.03;0.80;;;12.00;99.90;;;;;;5095639;28;20169;-62
2020/12/22 01:59:39;;;;;;;2.00;1.10;;;12.10;99.90;;;;;;5095955;28;20185;-62
2020/12/22 02:02:05;;;;;;;1.10;0.80;;;12.30;99.90;;;;;;5095937;28;20411;-62
2020/12/22 02:04:34;;;;;;;0.70;0.67;;;12.10;99.90;;;;;;5093060;28;20266;-62
2020/12/22 02:07:00;;;;;;;1.47;0.80;;;12.20;99.90;;;;;;5095740;28;20403;-61
2020/12/22 02:09:25;;;;;;;0.93;0.73;;;12.20;99.90;;;;;;5095537;28;20459;-61
2020/12/22 02:11:51;;;;;;;1.47;0.70;;;12.30;99.90;;;;;;5095465;28;20162;-62
2020/12/22 02:14:17;;;;;;;0.80;0.70;;;12.40;99.90;;;;;;5095018;28;20213;-62
2020/12/22 02:16:42;;;;;;;0.97;0.80;;;12.30;99.90;;;;;;5095355;28;20616;-61
2020/12/22 02:19:09;;;;;;;1.00;0.60;;;12.30;99.90;;;;;;5094856;28;20526;-62
2020/12/22 02:21:35;;;;;;;0.70;0.50;;;12.20;99.90;;;;;;5095611;28;20598;-61
2020/12/22 02:24:00;;;;;;;1.47;0.60;;;12.30;99.90;;;;;;5095143;28;20416;-62
2020/12/22 02:26:26;;;;;;;0.80;0.50;;;12.30;99.90;;;;;;5095048;28;20537;-62
2020/12/22 02:28:54;;;;;;;0.70;0.70;;;12.40;99.90;;;;;;5095089;28;20205;-62
2020/12/22 02:31:23;;;;;;;0.70;0.50;;;12.40;99.90;;;;;;5095195;28;20198;-62
2020/12/22 02:33:49;;;;;;;0.70;0.50;;;12.40;99.90;;;;;;5085624;28;20412;-62
2020/12/22 02:36:15;;;;;;;0.80;0.60;;;12.30;99.90;;;;;;5074822;28;20400;-61
2020/12/22 02:38:42;;;;;;;0.80;0.60;;;12.40;99.90;;;;;;5074586;28;20989;-62
2020/12/22 02:41:08;;;;;;;0.60;0.50;;;12.30;99.90;;;;;;5074199;28;20972;-62
2020/12/22 02:43:34;;;;;;;0.77;0.50;;;12.30;99.90;;;;;;5083720;28;20517;-60
2020/12/22 02:46:00;;;;;;;0.70;0.50;;;12.40;99.90;;;;;;5094697;28;20415;-61
2020/12/22 02:48:26;;;;;;;0.70;0.50;;;12.40;99.90;;;;;;5094173;28;20462;-62
2020/12/22 02:50:51;;;;;;;1.77;0.70;;;12.40;99.90;;;;;;5094647;28;20540;-62
2020/12/22 02:53:17;;;;;;;0.60;0.40;;;12.60;99.90;;;;;;5093643;28;20399;-62
2020/12/22 02:55:43;;;;;;;0.70;0.50;;;12.50;99.90;;;;;;5094444;28;20183;-62
2020/12/22 02:58:08;;;;;;;0.77;0.43;;;12.40;99.90;;;;;;5094826;28;20189;-62
2020/12/22 03:00:34;;;;;;;1.03;0.50;;;12.40;99.90;;;;;;5094544;28;20244;-62
2020/12/22 03:03:00;;;;;;;0.70;0.40;;;12.50;99.90;;;;;;5092166;28;20173;-62
2020/12/22 03:05:25;;;;;;;0.93;0.50;;;12.60;99.90;;;;;;5074047;28;20177;-62
2020/12/22 03:07:51;;;;;;;0.70;0.50;;;12.50;99.90;;;;;;5074167;28;20270;-62
2020/12/22 03:10:18;;;;;;;0.70;0.50;;;12.60;99.90;;;;;;5073918;28;20173;-62
2020/12/22 03:12:45;;;;;;;0.87;0.60;;;12.60;99.90;;;;;;5073676;28;20942;-62
2020/12/22 03:15:11;;;;;;;1.33;0.73;;;12.60;99.90;;;;;;5074279;28;20774;-62
2020/12/22 03:17:38;;;;;;;0.80;0.50;;;12.50;99.90;;;;;;5074567;28;20428;-62
2020/12/22 03:20:06;;;;;;;0.70;0.50;;;12.60;99.90;;;;;;5073828;28;20429;-62
2020/12/22 03:22:32;;;;;;;1.27;0.50;;;12.70;99.90;;;;;;5074357;28;20503;-62
2020/12/22 03:24:58;;;;;;;1.60;0.60;;;12.70;99.90;;;;;;5074333;28;20411;-62
2020/12/22 03:27:24;;;;;;;1.13;0.60;;;12.70;99.90;;;;;;5073559;28;20820;-62
2020/12/22 03:29:49;;;;;;;0.70;0.50;;;12.70;99.90;;;;;;5073905;28;20244;-62
2020/12/22 03:32:15;;;;;;;0.60;0.50;;;12.80;99.90;;;;;;5073751;28;20254;-62
2020/12/22 03:34:41;;;;;;;1.13;0.50;;;12.80;99.90;;;;;;5073436;28;20173;-62
2020/12/22 03:37:07;;;;;;;0.80;0.40;;;12.80;99.90;;;;;;5072880;28;20166;-62
2020/12/22 03:39:32;;;;;;;1.20;0.60;;;12.70;99.90;;;;;;5073716;28;20174;-62
2020/12/22 03:41:58;;;;;;;0.70;0.50;;;12.60;99.90;;;;;;5073493;28;20413;-63
2020/12/22 03:44:24;;;;;;;1.33;0.50;;;12.60;99.90;;;;;;5073607;28;20652;-62
2020/12/22 03:46:49;;;;;;;0.70;0.50;;;12.70;99.90;;;;;;5073569;28;20203;-62
2020/12/22 03:49:16;;;;;;;0.80;0.60;;;12.70;99.90;;;;;;5073401;28;20213;-62
2020/12/22 03:51:43;;;;;;;0.80;0.40;;;12.70;99.90;;;;;;5073881;28;20176;-62
2020/12/22 03:54:09;;;;;;;0.60;0.47;;;12.70;99.90;;;;;;5072418;28;20501;-63
2020/12/22 03:56:34;;;;;;;0.73;0.53;;;12.80;99.90;;;;;;5073406;28;20495;-60
2020/12/22 03:59:00;;;;;;;0.70;0.50;;;12.70;99.90;;;;;;5073662;28;20959;-61
2020/12/22 04:01:26;;;;;;;0.70;0.50;;;12.70;99.90;;;;;;5073602;28;20176;-63
2020/12/22 04:03:51;;;;;;;0.80;0.50;;;12.80;99.90;;;;;;5072953;28;20183;-61
2020/12/22 04:06:17;;;;;;;0.70;0.40;;;12.90;99.90;;;;;;5073073;28;20599;-62
2020/12/22 04:08:42;;;;;;;0.70;0.50;;;12.70;99.90;;;;;;5077871;28;20217;-63
2020/12/22 04:11:08;;;;;;;0.70;0.43;;;12.80;99.90;;;;;;5094314;28;20183;-63
2020/12/22 04:13:35;;;;;;;0.70;0.50;;;12.80;99.90;;;;;;5094557;28;20171;-62
2020/12/22 04:16:04;;;;;;;0.60;0.40;;;12.60;99.90;;;;;;5093562;28;20195;-62
2020/12/22 04:18:30;;;;;;;0.70;0.40;;;12.70;99.90;;;;;;5093166;28;20536;-62
2020/12/22 04:20:57;;;;;;;0.80;0.40;;;12.80;99.90;;;;;;5093205;28;20886;-62
2020/12/22 04:23:24;;;;;;;0.60;0.40;;;12.80;99.90;;;;;;5093171;28;20494;-62
2020/12/22 04:25:50;;;;;;;1.00;0.50;;;12.70;99.90;;;;;;5093335;28;20407;-62
2020/12/22 04:28:16;;;;;;;0.80;0.40;;;12.70;99.90;;;;;;5093176;28;20473;-63
2020/12/22 04:30:42;;;;;;;0.60;0.40;;;12.80;99.90;;;;;;5092412;28;20174;-63
2020/12/22 04:33:07;;;;;;;0.60;0.40;;;12.80;99.90;;;;;;5089758;28;20186;-62
2020/12/22 04:35:33;;;;;;;0.80;0.40;;;12.90;99.90;;;;;;5072708;28;20230;-61
2020/12/22 04:38:00;;;;;;;0.77;0.50;;;12.90;99.90;;;;;;5072851;28;20430;-62
2020/12/22 04:40:25;;;;;;;0.70;0.50;;;12.90;99.90;;;;;;5073115;28;20633;-63
2020/12/22 04:42:53;;;;;;;1.53;0.40;;;12.90;99.90;;;;;;5072654;28;20489;-61
2020/12/22 04:45:20;;;;;;;0.60;0.40;;;12.90;99.90;;;;;;5072845;28;20174;-61
2020/12/22 04:47:46;;;;;;;0.73;0.50;;;12.80;99.90;;;;;;5073161;28;20459;-62
2020/12/22 04:50:15;;;;;;;0.70;0.40;;;12.80;99.90;;;;;;5072713;28;20457;-62
2020/12/22 04:52:41;;;;;;;0.70;0.40;;;12.80;99.90;;;;;;5073163;28;20409;-61
2020/12/22 04:55:07;;;;;;;0.80;0.40;;;12.80;99.90;;;;;;5072937;28;20775;-61
2020/12/22 04:57:32;;;;;;;0.70;0.50;;;12.80;99.90;;;;;;5072568;28;20428;-62
2020/12/22 05:00:00;;;;;;;0.60;0.40;;;12.80;99.90;;;;;;5073040;28;20176;-62
2020/12/22 05:02:27;;;;;;;1.07;0.40;;;12.90;99.90;;;;;;5073538;28;20223;-62
2020/12/22 05:04:53;;;;;;;0.67;0.40;;;12.90;99.90;;;;;;5073085;28;20455;-61
2020/12/22 05:07:19;;;;;;;3.47;0.50;;;12.90;99.90;;;;;;5072817;28;21215;-62
2020/12/22 05:09:46;;;;;;;0.80;0.50;;;12.90;99.90;;;;;;5072853;28;20308;-61
2020/12/22 05:12:11;;;;;;;1.00;0.50;;;12.90;99.90;;;;;;5072479;28;20258;-62
2020/12/22 05:14:37;;;;;;;0.70;0.40;;;12.90;99.90;;;;;;5072841;28;20433;-62
2020/12/22 05:17:02;;;;;;;0.60;0.40;;;12.90;99.90;;;;;;5075987;28;20215;-62
2020/12/22 05:19:35;;;;;;;0.70;0.40;;;12.90;99.90;;;;;;5075804;28;20532;-62
2020/12/22 05:22:02;;;;;;;0.60;0.40;;;12.80;99.90;;;;;;5076629;28;20162;-62
2020/12/22 05:24:28;;;;;;;0.70;0.47;;;12.80;99.90;;;;;;5076445;28;20408;-62
2020/12/22 05:26:54;;;;;;;0.70;0.50;;;12.90;99.90;;;;;;5076112;28;20464;-62
2020/12/22 05:29:20;;;;;;;0.90;0.40;;;12.90;99.90;;;;;;5074840;28;20548;-62
2020/12/22 05:31:50;;;;;;;1.83;0.60;;;13.00;99.90;;;;;;5076111;28;20415;-62
2020/12/22 05:34:17;;;;;;;0.60;0.47;;;13.10;99.90;;;;;;5075568;28;20217;-62
2020/12/22 05:36:44;;;;;;;0.60;0.40;;;13.00;99.90;;;;;;5085959;28;20418;-63
2020/12/22 05:39:14;;;;;;;0.87;0.50;;;13.10;99.90;;;;;;5096585;28;20899;-65
2020/12/22 05:41:40;;;;;;;0.70;0.40;;;13.10;99.90;;;;;;5096243;28;20404;-62
2020/12/22 05:44:07;;;;;;;0.80;0.60;;;13.00;99.90;;;;;;5095984;28;20410;-62
2020/12/22 05:46:38;;;;;;;1.00;0.50;;;12.90;99.90;;;;;;5095912;28;20400;-62
2020/12/22 05:49:05;;;;;;;0.60;0.40;;;12.80;99.90;;;;;;5095626;28;20452;-63
2020/12/22 05:51:32;;;;;;;1.20;1.10;;;12.90;99.90;;;;;;5095955;28;20395;-62
2020/12/22 05:54:08;;;;;;;0.60;0.40;;;13.00;99.90;;;;;;5096408;28;20409;-60
2020/12/22 05:56:35;;;;;;;0.70;0.50;;;13.00;99.90;;;;;;5096455;28;20799;-62
2020/12/22 05:59:01;;;;;;;0.60;0.43;;;13.10;99.90;;;;;;5096372;28;20457;-62
2020/12/22 06:01:35;;;;;;;0.80;0.40;;;13.20;99.90;;;;;;5098841;28;20433;-61
2020/12/22 06:04:03;;;;;;;0.70;0.40;;;13.20;99.90;;;;;;5083690;28;20423;-62
2020/12/22 06:06:31;;;;;;;1.53;0.40;;;13.20;99.90;;;;;;5075308;28;20439;-62
2020/12/22 06:08:58;;;;;;;2.13;0.43;;;13.10;99.90;;;;;;5074370;28;20540;-61
2020/12/22 06:11:24;;;;;;;1.07;0.40;;;13.20;99.90;;;;;;5075692;28;20420;-61
2020/12/22 06:13:51;;;;;;;1.57;0.80;;;13.10;99.90;;;;;;5075438;28;20950;-61
2020/12/22 06:16:23;;;;;;;0.87;0.43;;;13.20;99.90;;;;;;5075634;28;20407;-62
2020/12/22 06:18:50;;;;;;;0.60;0.50;;;13.20;99.90;;;;;;5074841;28;20446;-61
2020/12/22 06:21:20;;;;;;;0.70;0.40;;;13.10;99.90;;;;;;5074923;28;20389;-60
2020/12/22 06:23:46;;;;;;;0.70;0.50;;;13.20;99.90;;;;;;5075012;28;20457;-63
2020/12/22 06:26:12;;;;;;;0.60;0.40;;;13.20;99.90;;;;;;5075209;28;20447;-63
2020/12/22 06:28:38;;;;;;;0.90;0.50;;;13.20;99.90;;;;;;5074879;28;20490;-63
2020/12/22 06:31:19;;;;;;;1.00;0.40;;;13.20;99.90;;;;;;5075323;28;20411;-62
2020/12/22 06:33:45;;;;;;;0.70;0.50;;;13.30;99.90;;;;;;5075297;28;20725;-63
2020/12/22 06:36:17;;;;;;;1.30;0.50;;;13.30;99.90;;;;;;5074430;28;20534;-63
2020/12/22 06:38:43;;;;;;;0.67;0.47;;;13.30;99.90;;;;;;5074799;28;21001;-62
2020/12/22 06:41:09;;;;;;;0.70;0.50;;;13.30;99.90;;;;;;5075016;28;20405;-63
2020/12/22 06:43:45;;;;;;;0.70;0.60;;;13.30;99.90;;;;;;5074741;28;20426;-63
2020/12/22 06:46:33;;;;;;;3.23;0.83;;;13.30;99.90;;;;;;5074980;28;20414;-63
2020/12/22 06:48:59;;;;;;;0.70;0.40;;;13.30;99.90;;;;;;5074090;28;20456;-61
2020/12/22 06:51:33;;;;;;;0.70;0.50;;;13.30;99.90;;;;;;5073809;28;20408;-63
2020/12/22 06:53:59;;;;;;;0.70;0.50;;;13.40;99.90;;;;;;5074475;28;20397;-61
2020/12/22 06:56:42;;;;;;;0.80;0.50;;;13.40;99.90;;;;;;5075144;28;20487;-63
2020/12/22 06:59:12;;;;;;;0.70;0.40;;;13.50;99.90;;;;;;5074892;28;20424;-63
2020/12/22 07:01:46;;;;;;;0.83;0.47;;;13.50;99.90;;;;;;5073737;28;20392;-63
2020/12/22 07:04:16;;;;;;;0.70;0.50;;;13.40;99.90;;;;;;5072875;28;20424;-62
2020/12/22 07:06:49;;;;;;;0.90;0.50;;;13.40;99.90;;;;;;5074200;28;20419;-63
2020/12/22 07:09:17;;;;;;;0.90;0.80;;;13.40;99.90;;;;;;5074410;28;20498;-63
2020/12/22 07:11:43;;;;;;;1.00;0.50;;;13.50;99.90;;;;;;5073133;28;20412;-61
2020/12/22 07:14:10;;;;;;;0.77;0.50;;;13.50;99.90;;;;;;5074457;28;20405;-63
2020/12/22 07:16:56;;;;;;;1.57;0.50;;;13.40;99.90;;;;;;5074204;28;20193;-63
2020/12/22 07:19:29;;;;;;;0.70;0.50;;;13.40;99.90;;;;;;5073239;28;20443;-63
2020/12/22 07:22:15;;;;;;;0.70;0.40;;;13.50;99.90;;;;;;5073712;28;20394;-63
2020/12/22 07:24:41;;;;;;;0.70;0.50;;;13.60;99.90;;;;;;5073898;28;20409;-63
2020/12/22 07:27:07;;;;;;;0.60;0.50;;;13.50;99.90;;;;;;5074185;28;20397;-63
2020/12/22 07:29:38;;;;;;;1.57;0.70;;;13.50;99.90;;;;;;5074031;28;20190;-63
2020/12/22 07:32:05;;;;;;;0.70;0.50;;;13.50;99.90;;;;;;5074610;28;20397;-63
2020/12/22 07:34:35;;;;;;;1.03;0.50;;;13.60;99.90;;;;;;5073348;28;20415;-63
2020/12/22 07:37:12;;;;;;;3.50;0.63;;;13.60;99.90;;;;;;5074086;28;20388;-63
2020/12/22 07:39:39;;;;;;;0.80;0.50;;;13.70;99.90;;;;;;5073139;28;20953;-63
2020/12/22 07:42:16;;;;;;;0.83;0.50;;;13.60;99.90;;;;;;5073996;28;20404;-63
2020/12/22 07:44:43;;;;;;;0.70;0.47;;;13.60;99.90;;;;;;5074365;28;20397;-62
2020/12/22 07:47:09;;;;;;;1.00;0.70;;;13.80;99.90;;;;;;5074156;28;20916;-63
2020/12/22 07:49:36;;;;;;;0.70;0.50;;;13.80;99.90;;;;;;5072688;28;20449;-63
2020/12/22 07:52:02;;;;;;;1.37;0.70;;;13.90;99.90;;;;;;5073252;28;20827;-62
2020/12/22 07:54:28;;;;;;;0.80;0.60;;;13.90;99.90;;;;;;5073565;28;20438;-62
2020/12/22 07:57:00;;;;;;;0.80;0.50;;;14.00;99.90;;;;;;5074501;28;20419;-62
2020/12/22 07:59:27;;;;;;;1.17;0.50;;;13.90;99.90;;;;;;5072582;28;20195;-63
2020/12/22 08:01:54;;;;;;;0.70;0.40;;;13.90;99.90;;;;;;5111161;28;20412;-63
2020/12/22 08:04:24;;;;;;;0.70;0.50;;;13.80;99.90;;;;;;5104464;28;20423;-63
2020/12/22 08:07:08;;;;;;;1.77;0.50;;;13.90;99.90;;;;;;5073527;28;20394;-63
2020/12/22 08:09:39;;;;;;;0.70;0.50;;;13.80;99.90;;;;;;5073386;28;20941;-62
2020/12/22 08:12:07;;;;;;;0.87;0.40;;;13.90;99.90;;;;;;5073660;28;20388;-62
2020/12/22 08:14:38;;;;;;;0.67;0.47;;;14.00;99.90;;;;;;5073408;28;20491;-61
2020/12/22 08:17:20;;;;;;;0.70;0.50;;;14.00;99.90;;;;;;5073364;28;20388;-63
2020/12/22 08:19:46;;;;;;;0.80;0.40;;;14.10;99.90;;;;;;5072268;28;20807;-62
2020/12/22 08:22:16;;;;;;;0.63;0.47;;;14.00;99.90;;;;;;5072783;28;20948;-62
2020/12/22 08:24:42;;;;;;;0.70;0.50;;;14.00;99.90;;;;;;5073017;28;20414;-62
2020/12/22 08:27:08;;;;;;;2.37;0.50;;;14.00;99.90;;;;;;5071792;28;20435;-61
2020/12/22 08:29:34;;;;;;;0.90;0.50;;;14.00;99.90;;;;;;5083883;28;20457;-61
2020/12/22 08:32:01;;;;;;;0.70;0.50;;;14.00;99.90;;;;;;5093443;28;20533;-62
2020/12/22 08:34:28;;;;;;;1.00;0.60;;;14.10;99.90;;;;;;5087282;28;20773;-60
2020/12/22 08:36:54;;;;;;;1.07;0.50;;;14.00;99.90;;;;;;5073560;28;20789;-61
2020/12/22 08:39:27;;;;;;;1.07;0.50;;;14.00;99.90;;;;;;5073272;28;20908;-61
2020/12/22 08:41:57;;;;;;;0.70;0.43;;;14.00;99.90;;;;;;5072272;28;20925;-61
2020/12/22 08:44:25;;;;;;;1.00;0.50;;;14.20;99.90;;;;;;5072991;28;20407;-61
2020/12/22 08:46:52;;;;;;;0.70;0.50;;;14.00;99.90;;;;;;5072780;28;20411;-61
2020/12/22 08:49:26;;;;;;;0.70;0.50;;;14.10;99.90;;;;;;5073116;28;20455;-61
2020/12/22 08:51:56;;;;;;;0.70;0.50;;;14.10;99.90;;;;;;5075911;28;20383;-62
2020/12/22 08:54:28;;;;;;;0.70;0.43;;;14.10;99.90;;;;;;5077243;28;20853;-62
2020/12/22 08:57:09;;;;;;;1.13;0.50;;;14.10;99.90;;;;;;5076628;28;20395;-61
2020/12/22 08:59:35;;;;;;;0.73;0.50;;;14.30;99.90;;;;;;5080746;28;20394;-59
2020/12/22 09:02:00;;;;;;;1.10;0.70;;;14.40;99.90;;;;;;5086438;28;20472;-59
2020/12/22 09:04:30;;;;;;;0.70;0.50;;;14.40;99.90;;;;;;5087412;28;20204;-58
2020/12/22 09:06:57;;;;;;;2.40;0.50;;;14.40;99.90;;;;;;5086862;28;20173;-59
2020/12/22 09:09:27;;;;;;;0.60;0.40;;;14.40;99.90;;;;;;5087145;28;20525;-57
2020/12/22 09:12:11;;;;;;;1.37;0.50;;;14.60;99.90;;;;;;5086540;28;20404;-58
2020/12/22 09:14:49;;;;;;;0.70;0.50;;;14.60;99.90;;;;;;5086922;28;20393;-58
2020/12/22 09:17:30;;;;;;;1.67;0.50;;;14.60;99.90;;;;;;5086948;28;20414;-58
2020/12/22 09:19:55;;;;;;;0.60;0.50;;;14.40;99.90;;;;;;5087833;28;20428;-59
2020/12/22 09:22:23;;;;;;;0.80;0.50;;;14.30;99.90;;;;;;5087273;28;20924;-59
2020/12/22 09:25:07;;;;;;;2.10;0.50;;;14.50;99.90;;;;;;5088022;28;20171;-59
2020/12/22 09:27:34;;;;;;;0.97;0.50;;;14.50;99.90;;;;;;5083836;28;20429;-59
2020/12/22 09:30:01;;;;;;;0.80;0.50;;;14.40;99.90;;;;;;5084797;28;20451;-58
2020/12/22 09:32:28;;;;;;;0.73;0.50;;;14.30;99.90;;;;;;5086097;28;20406;-58
2020/12/22 09:34:54;;;;;;;1.20;0.50;;;14.30;99.90;;;;;;5083908;28;20428;-58
2020/12/22 09:37:22;;;;;;;0.60;0.40;;;14.30;99.90;;;;;;5083809;28;20440;-58
2020/12/22 09:39:50;;;;;;;1.33;0.57;;;14.10;99.90;;;;;;5085348;28;20417;-59
2020/12/22 09:42:20;;;;;;;0.60;0.50;;;14.10;99.90;;;;;;5083760;28;20456;-59
2020/12/22 09:44:46;;;;;;;0.80;0.50;;;14.10;99.90;;;;;;5083502;28;20444;-59
2020/12/22 09:47:12;;;;;;;2.17;1.10;;;14.10;99.90;;;;;;5081220;28;20410;-58
2020/12/22 09:49:37;;;;;;;0.70;0.47;;;14.10;99.90;;;;;;5081005;28;20198;-59
2020/12/22 09:52:03;;;;;;;0.60;0.40;;;14.20;99.90;;;;;;5082401;28;20979;-59
2020/12/22 09:54:29;;;;;;;1.23;0.60;;;14.20;99.90;;;;;;5083656;28;20170;-57
2020/12/22 09:56:55;;;;;;;0.93;0.50;;;14.10;99.90;;;;;;5082841;28;20402;-58
2020/12/22 09:59:21;;;;;;;0.80;0.53;;;14.10;99.90;;;;;;5086280;28;20518;-60
2020/12/22 10:01:47;;;;;;;0.90;0.50;;;14.30;99.90;;;;;;5087763;28;20407;-59
2020/12/22 10:04:13;;;;;;;0.80;0.50;;;14.30;99.90;;;;;;5090959;28;20484;-59
2020/12/22 10:06:39;;;;;;;0.70;0.50;;;14.40;99.90;;;;;;5106980;28;20874;-58
2020/12/22 10:09:04;;;;;;;0.70;0.50;;;14.50;99.90;;;;;;5104823;28;20556;-59
2020/12/22 10:11:32;;;;;;;0.70;0.43;;;14.50;99.90;;;;;;5103330;28;20395;-59
2020/12/22 10:13:58;;;;;;;0.70;0.50;;;14.50;99.90;;;;;;5103234;28;20177;-59
2020/12/22 10:16:23;;;;;;;0.60;0.40;;;14.60;99.90;;;;;;5106010;28;20429;-59
2020/12/22 10:18:50;;;;;;;0.80;0.60;;;14.60;99.90;;;;;;5103752;28;20585;-57
2020/12/22 10:21:18;;;;;;;2.00;0.60;;;14.50;99.90;;;;;;5104825;28;20583;-58
2020/12/22 10:23:46;;;;;;;1.13;0.60;;;14.60;99.90;;;;;;5104074;28;20451;-57
2020/12/22 10:26:16;;;;;;;0.63;0.50;;;14.70;99.90;;;;;;5103806;28;20425;-59
2020/12/22 10:28:43;;;;;;;0.70;0.50;;;14.80;99.90;;;;;;5104557;28;20452;-60
2020/12/22 10:31:19;;;;;;;1.37;0.50;;;15.00;99.90;;;;;;5106103;28;20440;-60
2020/12/22 10:33:46;;;;;;;0.90;0.60;;;15.10;99.90;;;;;;5104537;28;20385;-58
2020/12/22 10:36:16;;;;;;;0.77;0.57;;;14.90;99.90;;;;;;5083956;28;20934;-59
2020/12/22 10:38:42;;;;;;;0.90;0.50;;;14.90;99.90;;;;;;5083561;28;20512;-58
2020/12/22 10:41:07;;;;;;;0.77;0.50;;;15.00;99.90;;;;;;5080825;28;20454;-58
2020/12/22 10:43:34;;;;;;;1.20;0.50;;;14.80;99.90;;;;;;5080803;28;20175;-59
2020/12/22 10:46:00;;;;;;;0.70;0.50;;;14.80;99.90;;;;;;5081132;28;20185;-58
2020/12/22 10:48:26;;;;;;;0.80;0.50;;;15.00;99.90;;;;;;5081365;28;20462;-61
2020/12/22 10:50:51;;;;;;;0.90;0.70;;;14.90;99.90;;;;;;5081457;28;20410;-59
2020/12/22 10:53:17;;;;;;;1.00;0.90;;;14.90;99.90;;;;;;5082334;28;20411;-58
2020/12/22 10:55:43;;;;;;;1.10;0.53;;;15.00;99.90;;;;;;5082085;28;20175;-65
2020/12/22 10:58:08;;;;;;;0.77;0.53;;;15.00;99.90;;;;;;5079742;28;20279;-61
2020/12/22 11:00:34;;;;;;;0.90;0.80;;;15.10;99.90;;;;;;5080636;28;20232;-61
2020/12/22 11:03:04;;;;;;;1.27;0.70;;;14.90;99.90;;;;;;5080719;28;20172;-60
2020/12/22 11:08:14;;;;;;;0.73;0.60;;;14.80;99.90;;;;;;5081798;28;20426;-61
2020/12/22 11:10:41;;;;;;;0.80;0.60;;;15.00;99.90;;;;;;5082809;28;20394;-61
2020/12/22 11:13:07;;;;;;;0.70;0.50;;;15.00;99.90;;;;;;5082154;28;20402;-59
2020/12/22 11:15:36;;;;;;;1.53;0.60;;;15.00;99.90;;;;;;5083606;28;20426;-61
2020/12/22 11:18:01;;;;;;;0.70;0.50;;;15.10;99.90;;;;;;5083279;28;20950;-59
2020/12/22 11:20:27;;;;;;;0.70;0.53;;;15.30;99.90;;;;;;5088228;28;20436;-61
2020/12/22 11:22:52;;;;;;;1.20;0.60;;;15.20;99.90;;;;;;5096103;28;20588;-60
2020/12/22 11:25:18;;;;;;;0.60;0.40;;;15.10;99.90;;;;;;5107469;28;20167;-57
2020/12/22 11:27:45;;;;;;;1.30;0.57;;;15.10;99.90;;;;;;5104958;28;20558;-61
2020/12/22 11:30:11;;;;;;;1.10;0.60;;;15.00;99.90;;;;;;5105328;28;20448;-59
2020/12/22 11:32:36;;;;;;;0.80;0.50;;;15.00;99.90;;;;;;5105892;28;20469;-60
2020/12/22 11:35:07;;;;;;;0.70;0.50;;;15.10;99.90;;;;;;5093220;28;20206;-61
2020/12/22 11:37:33;;;;;;;0.87;0.50;;;15.30;99.90;;;;;;5086165;28;20192;-61
2020/12/22 11:39:58;;;;;;;0.70;0.50;;;15.30;99.90;;;;;;5085519;28;20418;-61
2020/12/22 11:42:24;;;;;;;2.60;0.53;;;15.40;99.90;;;;;;5085637;28;20168;-61
2020/12/22 11:44:50;;;;;;;1.63;0.57;;;15.20;99.90;;;;;;5085915;28;20168;-60
2020/12/22 11:47:16;;;;;;;0.70;0.50;;;15.20;99.90;;;;;;5086634;28;20172;-61
2020/12/22 11:49:42;;;;;;;0.80;0.50;;;15.00;99.90;;;;;;5084420;28;20249;-62
2020/12/22 11:52:08;;;;;;;1.00;0.70;;;15.00;99.90;;;;;;5084614;28;20412;-61
2020/12/22 11:54:35;;;;;;;0.70;0.50;;;15.00;99.90;;;;;;5085792;28;20400;-60
2020/12/22 11:57:00;;;;;;;0.70;0.50;;;14.90;99.90;;;;;;5084923;28;20404;-60
2020/12/22 11:59:26;;;;;;;0.80;0.63;;;14.90;99.90;;;;;;5082669;28;20474;-63
2020/12/22 12:01:51;;;;;;;1.23;0.67;;;14.90;99.90;;;;;;5073588;28;20177;-63
2020/12/22 12:04:17;;;;;;;2.07;0.70;;;15.00;99.90;;;;;;5073520;28;20221;-63
2020/12/22 12:06:47;;;;;;;1.03;0.60;;;15.10;99.90;;;;;;5073180;28;20167;-63
2020/12/22 12:09:13;;;;;;;1.00;0.70;;;15.10;99.90;;;;;;5073188;28;20211;-63
2020/12/22 12:11:39;;;;;;;0.97;0.60;;;15.20;99.90;;;;;;5075028;28;20465;-63
2020/12/22 12:14:05;;;;;;;0.70;0.60;;;15.20;99.90;;;;;;5095577;28;20492;-63
2020/12/22 12:16:31;;;;;;;0.73;0.57;;;15.40;99.90;;;;;;5093520;28;20596;-63
2020/12/22 12:18:57;;;;;;;0.73;0.60;;;15.40;99.90;;;;;;5092981;28;20520;-63
2020/12/22 12:21:23;;;;;;;0.70;0.50;;;15.60;99.90;;;;;;5093363;28;20409;-63
2020/12/22 12:23:48;;;;;;;0.90;0.50;;;15.60;99.90;;;;;;5093650;28;20184;-63
2020/12/22 12:26:14;;;;;;;1.47;0.50;;;15.60;99.90;;;;;;5097377;28;20178;-62
2020/12/22 12:28:41;;;;;;;1.10;0.70;;;15.80;99.90;;;;;;5097551;28;20612;-63
2020/12/22 12:31:13;;;;;;;1.00;0.80;;;15.80;99.90;;;;;;5097470;28;20175;-63
2020/12/22 12:33:38;;;;;;;1.10;0.53;;;15.70;99.90;;;;;;5097644;28;20385;-63
2020/12/22 12:36:04;;;;;;;0.70;0.50;;;15.80;99.90;;;;;;5077650;28;20421;-63
2020/12/22 12:38:30;;;;;;;0.70;0.50;;;15.60;99.90;;;;;;5077250;28;20191;-63
2020/12/22 12:40:55;;;;;;;1.23;0.70;;;15.70;99.90;;;;;;5077232;28;20560;-63
2020/12/22 12:43:21;;;;;;;0.70;0.50;;;15.60;99.90;;;;;;5076882;28;20188;-61
2020/12/22 12:45:46;;;;;;;0.70;0.50;;;15.50;99.90;;;;;;5076803;28;20212;-63
2020/12/22 12:48:12;;;;;;;1.10;0.70;;;15.40;99.90;;;;;;5077309;28;20197;-63
2020/12/22 12:50:37;;;;;;;0.70;0.50;;;15.30;99.90;;;;;;5076274;28;20180;-64